Terminal Aerodrome Forecast
Issued by NWS

Home | Current Version | Previous Version | Text Only | Print | Product List | Glossary On
Versions: 1 2 3 4 5 6 7 8 9 10 11 12 13 14 15
000
FTUS45 KRIW 030800 AAA
TAFCPR
TAF AMD
KCPR 030840Z 0309/0406 03014G20KT 2SM -SN BLSN SCT015 OVC030
     FM031900 03008KT 4SM -SN OVC025
     FM040300 24006KT P6SM -SN SCT030 BKN050=

USA.gov is the U.S. government's official web portal to all federal, state and local government web resources and services.